大阪市立科学館学芸員 江越航のホームページ  大阪市立科学館 学芸員

 江越 航のホームページ

大阪市立科学館 屋上ライブカメラ

現在の科学館上空の様子
ライブカメラ

環境データ

過去24時間の環境変化
環境トレンド
凡例
過去1週間の環境変化
気象データ

数値計算データ(NOAA)

海面更正気圧 地表付近の風
海面更正気圧 地表付近の風
850hPa面の温度 850hPa面の相対湿度
850hPa面の温度 850hPa面の相対湿度

定時航空実況気象通報式(METAR)

大阪空港 定時航空実況気象通報式
20日08時00分(JST)
RJOO 192300Z 31005KT 9999 FEW030 02/M03 Q1015 RMK 1CU030 A2999
CU 積雲
雲量 :1/8
雲底高度 :3000 feet

関西国際空港 定時航空実況気象通報式
20日08時30分(JST)
RJBB 192330Z 28021KT 9999 FEW020 06/00 Q1016 NOSIG

気象庁XML 受信データ

大阪府府県天気予報
2022-01-20T05:00:00+09:00
今日 くもり 朝晩 晴れ 所により 夕方 まで 雪 で 雷を伴う

府県天気概況
2022-01-20T04:32:00+09:00
 大阪府は、高気圧に覆われて晴れています。

 20日の大阪府は、冬型の気圧配置の影響で曇りますが、朝晩は晴れるでしょう。夕方にかけて雷を伴って雪の降る所がある見込みです。

 21日の大阪府は、冬型の気圧配置の影響でおおむね曇るでしょう。

【近畿地方】
 近畿地方は、冬型の気圧配置の影響で北部では曇り、雷を伴い雪の降っている所があります。中部や南部では高気圧に覆われておおむね晴れています。

 20日の近畿地方は、冬型の気圧配置の影響で北部では雪が降るでしょう。中部や南部ではおおむね曇り、断続的に雪の降る所がある見込みです。雷を伴う所があるでしょう。

 21日の近畿地方は、冬型の気圧配置の影響で北部では午前中は雪が降りますが、午後は冬型の気圧配置は緩むため曇る見込みです。中部や南部ではおおむね曇り、昼過ぎにかけて雪の降る所があるでしょう。